Time;durP1;ratioP1;P1;durP2;ratioP2;P2;SDS_P1;SDS_P2;PMS_P1;PMS_P2;Temp;Humidity;BMP_temperature;BMP_pressure;BME280_temperature;BME280_humidity;BME280_pressure;Samples;Min_cycle;Max_cycle;Signal;HPM_P1;HPM_P2
2022/03/12 00:00:00;;;;;;;31.90;16.15;;;5.80;83.90;;;;;;5081544;28;20047;-75
2022/03/12 00:02:32;;;;;;;27.33;15.88;;;5.80;84.00;;;;;;5086554;28;20111;-75
2022/03/12 00:04:58;;;;;;;29.75;16.13;;;5.80;84.00;;;;;;5086333;28;20032;-75
2022/03/12 00:07:25;;;;;;;26.98;15.70;;;5.80;84.10;;;;;;5086749;28;20485;-75
2022/03/12 00:09:50;;;;;;;29.65;16.83;;;5.80;84.10;;;;;;5087423;28;20032;-75
2022/03/12 00:12:19;;;;;;;26.95;16.85;;;5.70;84.10;;;;;;5088046;28;20058;-75
2022/03/12 00:14:46;;;;;;;30.25;17.35;;;5.70;84.10;;;;;;5090504;28;20110;-75
2022/03/12 00:17:13;;;;;;;27.35;16.27;;;5.60;84.00;;;;;;5089228;28;20516;-74
2022/03/12 00:19:41;;;;;;;28.13;17.92;;;5.70;84.10;;;;;;5090581;28;20042;-74
2022/03/12 00:22:08;;;;;;;32.33;18.52;;;5.80;84.20;;;;;;5090598;28;20054;-74
2022/03/12 00:24:34;;;;;;;29.02;17.25;;;5.80;84.10;;;;;;5091094;28;20066;-74
2022/03/12 00:27:00;;;;;;;25.73;15.68;;;5.80;84.30;;;;;;5089241;28;20490;-75
2022/03/12 00:29:26;;;;;;;33.63;15.85;;;5.80;83.90;;;;;;5091148;28;20470;-74
2022/03/12 00:31:53;;;;;;;26.27;16.33;;;5.80;84.10;;;;;;5089034;28;20075;-74
2022/03/12 00:34:20;;;;;;;26.13;16.90;;;5.80;83.90;;;;;;5087488;28;20024;-74
2022/03/12 00:36:47;;;;;;;27.42;16.83;;;5.70;84.10;;;;;;5091527;28;20123;-75
2022/03/12 00:39:15;;;;;;;32.40;16.33;;;5.70;84.30;;;;;;5091807;28;20035;-74
2022/03/12 00:41:45;;;;;;;31.17;16.85;;;5.70;84.30;;;;;;5091609;28;20431;-74
2022/03/12 00:44:17;;;;;;;27.05;16.02;;;5.60;84.40;;;;;;5091173;28;20035;-74
2022/03/12 00:46:43;;;;;;;27.15;16.17;;;5.60;84.30;;;;;;5091231;28;20165;-74
2022/03/12 00:49:09;;;;;;;26.25;15.82;;;5.60;84.30;;;;;;5091324;28;20059;-74
2022/03/12 00:51:38;;;;;;;34.90;17.77;;;5.60;84.40;;;;;;5081995;28;20028;-74
2022/03/12 00:54:04;;;;;;;31.35;16.85;;;5.50;84.70;;;;;;5091387;28;20036;-74
2022/03/12 00:56:30;;;;;;;28.77;17.50;;;5.50;84.90;;;;;;5091234;28;20039;-74
2022/03/12 00:58:56;;;;;;;26.20;15.18;;;5.50;85.00;;;;;;5090039;28;20028;-75
2022/03/12 01:01:23;;;;;;;28.70;16.58;;;5.50;85.00;;;;;;5090207;28;20056;-74
2022/03/12 01:03:49;;;;;;;31.65;17.05;;;5.50;85.30;;;;;;5090870;28;20031;-74
2022/03/12 01:06:18;;;;;;;27.95;17.05;;;5.50;85.10;;;;;;5090507;28;20040;-74
2022/03/12 01:08:44;;;;;;;27.77;16.98;;;5.50;85.30;;;;;;5084582;28;20047;-74
2022/03/12 01:11:11;;;;;;;32.70;17.27;;;5.40;85.40;;;;;;5090429;28;20079;-74
2022/03/12 01:13:38;;;;;;;26.25;16.23;;;5.50;85.30;;;;;;5090519;28;20123;-74
2022/03/12 01:16:05;;;;;;;32.00;17.13;;;5.40;85.60;;;;;;5090309;28;20469;-74
2022/03/12 01:18:31;;;;;;;27.40;15.98;;;5.40;85.70;;;;;;5089989;28;20047;-74
2022/03/12 01:21:07;;;;;;;26.25;14.75;;;5.40;85.50;;;;;;5090305;28;20051;-74
2022/03/12 01:23:33;;;;;;;32.63;15.75;;;5.30;85.70;;;;;;5088779;28;20584;-74
2022/03/12 01:25:59;;;;;;;28.90;16.48;;;5.30;85.80;;;;;;5088800;28;20067;-74
2022/03/12 01:28:25;;;;;;;26.08;15.48;;;5.30;86.20;;;;;;5091033;28;20055;-74
2022/03/12 01:30:50;;;;;;;28.38;16.02;;;5.30;85.80;;;;;;5089701;28;20371;-75
2022/03/12 01:33:18;;;;;;;29.77;17.52;;;5.30;86.60;;;;;;5090013;28;20032;-74
2022/03/12 01:35:44;;;;;;;29.77;16.52;;;5.10;86.50;;;;;;5086639;28;20112;-74
2022/03/12 01:38:09;;;;;;;26.08;16.35;;;5.10;86.30;;;;;;5090577;28;20123;-75
2022/03/12 01:40:35;;;;;;;28.10;16.40;;;5.10;86.40;;;;;;5088915;28;20059;-74
2022/03/12 01:43:02;;;;;;;27.73;16.73;;;5.10;86.60;;;;;;5088780;28;20111;-74
2022/03/12 01:45:28;;;;;;;26.63;16.20;;;5.00;86.70;;;;;;5089041;28;20482;-74
2022/03/12 01:47:59;;;;;;;30.98;15.88;;;5.00;86.80;;;;;;5088492;28;20020;-74
2022/03/12 01:50:28;;;;;;;31.83;16.35;;;5.00;86.90;;;;;;5090252;28;20028;-74
2022/03/12 01:52:58;;;;;;;27.13;17.02;;;5.10;86.80;;;;;;5089804;28;20119;-75
2022/03/12 01:55:30;;;;;;;26.02;16.90;;;5.00;86.80;;;;;;5089823;28;20032;-74
2022/03/12 01:57:58;;;;;;;33.22;16.08;;;5.10;86.80;;;;;;5086119;28;20067;-74
2022/03/12 02:00:26;;;;;;;27.52;16.23;;;5.10;86.80;;;;;;5088577;28;20086;-74
2022/03/12 02:02:53;;;;;;;27.40;15.57;;;5.00;87.00;;;;;;5088809;28;20028;-75
2022/03/12 02:05:20;;;;;;;29.25;16.67;;;5.00;87.40;;;;;;5089485;28;20026;-74
2022/03/12 02:07:46;;;;;;;33.75;18.90;;;5.00;87.20;;;;;;5087299;28;20036;-74
2022/03/12 02:10:17;;;;;;;29.45;18.13;;;4.90;87.20;;;;;;5088940;28;20032;-74
2022/03/12 02:12:42;;;;;;;29.40;16.67;;;4.90;87.40;;;;;;5088205;28;20028;-74
2022/03/12 02:15:08;;;;;;;26.65;17.02;;;4.90;87.70;;;;;;5083104;28;20032;-74
2022/03/12 02:17:37;;;;;;;30.50;16.20;;;4.90;87.60;;;;;;5089045;28;20040;-74
2022/03/12 02:20:05;;;;;;;26.80;16.00;;;5.00;87.90;;;;;;5089164;28;20401;-74
2022/03/12 02:22:30;;;;;;;27.58;16.15;;;5.00;88.20;;;;;;5089524;28;20105;-74
2022/03/12 02:24:56;;;;;;;32.60;17.85;;;4.90;88.00;;;;;;5081773;28;20479;-74
2022/03/12 02:27:25;;;;;;;28.17;15.25;;;4.90;88.00;;;;;;5085415;28;20048;-74
2022/03/12 02:29:59;;;;;;;28.45;15.57;;;4.90;87.80;;;;;;5089361;28;20024;-74
2022/03/12 02:32:25;;;;;;;28.05;15.40;;;4.90;88.00;;;;;;5086856;28;20047;-74
2022/03/12 02:34:51;;;;;;;27.67;16.02;;;4.80;88.40;;;;;;5086041;28;20130;-75
2022/03/12 02:37:30;;;;;;;27.63;16.27;;;4.80;88.30;;;;;;5084607;28;20068;-74
2022/03/12 02:40:04;;;;;;;27.58;16.60;;;4.80;88.30;;;;;;5088345;28;20045;-74
2022/03/12 02:42:31;;;;;;;;;;;4.90;87.80;;;;;;5089019;28;20028;-74
2022/03/12 02:44:59;;;;;;;31.75;16.75;;;4.80;87.80;;;;;;5088965;28;19912;-75
2022/03/12 02:47:32;;;;;;;24.90;15.10;;;4.80;88.60;;;;;;5093585;28;20122;-74
2022/03/12 02:50:06;;;;;;;24.77;16.45;;;4.70;89.50;;;;;;5081132;28;20039;-74
2022/03/12 02:52:34;;;;;;;27.98;15.45;;;4.80;89.00;;;;;;5091132;28;20051;-74
2022/03/12 02:55:00;;;;;;;30.25;17.08;;;4.80;89.00;;;;;;5093333;28;20034;-74
2022/03/12 02:57:28;;;;;;;31.45;16.52;;;5.00;88.00;;;;;;5093661;28;20028;-74
2022/03/12 03:00:04;;;;;;;29.23;14.07;;;5.00;88.20;;;;;;5085279;28;20040;-74
2022/03/12 03:02:40;;;;;;;23.30;13.60;;;5.00;88.60;;;;;;5093380;28;20039;-74
2022/03/12 03:05:16;;;;;;;28.33;16.17;;;5.00;89.50;;;;;;5092126;28;20047;-74
2022/03/12 03:07:45;;;;;;;27.02;13.98;;;4.80;89.50;;;;;;5091839;28;20032;-74
2022/03/12 03:10:28;;;;;;;23.77;14.52;;;4.80;89.40;;;;;;5091737;28;20040;-74
2022/03/12 03:12:54;;;;;;;26.48;15.63;;;4.80;89.50;;;;;;5092140;28;20032;-75
2022/03/12 03:15:20;;;;;;;25.27;15.77;;;4.70;90.00;;;;;;5093313;28;20084;-74
2022/03/12 03:17:47;;;;;;;29.45;16.45;;;4.60;90.00;;;;;;5093050;28;20031;-74
2022/03/12 03:20:14;;;;;;;23.92;13.77;;;4.70;90.20;;;;;;5090529;28;20524;-74
2022/03/12 03:22:40;;;;;;;31.40;14.68;;;4.60;90.40;;;;;;5090327;28;20142;-74
2022/03/12 03:25:06;;;;;;;25.17;15.15;;;4.60;90.40;;;;;;5087619;28;20028;-74
2022/03/12 03:27:31;;;;;;;33.28;15.95;;;4.60;90.40;;;;;;5092249;28;20048;-74
2022/03/12 03:29:57;;;;;;;26.83;14.68;;;4.50;90.50;;;;;;5092484;28;20163;-74
2022/03/12 03:32:23;;;;;;;26.25;14.45;;;4.60;90.40;;;;;;5092738;28;20044;-73
2022/03/12 03:34:49;;;;;;;26.35;14.40;;;4.60;90.40;;;;;;5092338;28;20032;-74
2022/03/12 03:37:16;;;;;;;28.17;15.60;;;4.70;90.50;;;;;;5088497;28;20027;-74
2022/03/12 03:39:41;;;;;;;34.58;16.30;;;4.60;90.50;;;;;;5090272;28;20033;-74
2022/03/12 03:42:07;;;;;;;28.25;16.38;;;4.70;90.30;;;;;;5093244;28;20192;-74
2022/03/12 03:44:33;;;;;;;25.55;14.75;;;4.70;90.20;;;;;;5092859;28;20118;-74
2022/03/12 03:46:59;;;;;;;29.83;15.40;;;4.70;90.30;;;;;;5088567;28;20043;-74
2022/03/12 03:49:25;;;;;;;27.60;16.00;;;4.70;90.10;;;;;;5092089;28;20039;-74
2022/03/12 03:51:52;;;;;;;30.38;16.60;;;4.70;90.20;;;;;;5092107;28;20024;-74
2022/03/12 03:54:18;;;;;;;27.30;15.18;;;4.70;90.30;;;;;;5092005;28;20027;-74
2022/03/12 03:56:43;;;;;;;27.13;15.20;;;4.80;90.10;;;;;;5085040;28;20082;-74
2022/03/12 03:59:09;;;;;;;26.80;16.30;;;4.70;90.20;;;;;;5089157;28;20039;-74
2022/03/12 04:01:40;;;;;;;28.20;15.70;;;4.60;90.50;;;;;;5091512;28;20079;-73
2022/03/12 04:04:06;;;;;;;24.92;15.07;;;4.50;90.60;;;;;;5086069;28;20035;-74
2022/03/12 04:06:32;;;;;;;27.45;15.18;;;4.50;90.90;;;;;;5085774;28;20032;-74
2022/03/12 04:08:58;;;;;;;26.35;15.68;;;4.40;91.20;;;;;;5087425;28;20093;-74
2022/03/12 04:11:25;;;;;;;25.45;15.38;;;4.40;91.20;;;;;;5087408;28;20024;-74
2022/03/12 04:13:52;;;;;;;33.83;18.20;;;4.50;90.90;;;;;;5083596;28;20190;-74
2022/03/12 04:16:19;;;;;;;30.00;16.85;;;4.50;91.00;;;;;;5084458;28;20466;-74
2022/03/12 04:18:46;;;;;;;31.60;16.52;;;4.50;90.80;;;;;;5081095;28;20081;-74
2022/03/12 04:21:13;;;;;;;31.92;16.05;;;4.50;90.90;;;;;;5083480;28;20130;-74
2022/03/12 04:23:40;;;;;;;29.35;16.58;;;4.50;90.80;;;;;;5085843;28;20040;-74
2022/03/12 04:26:05;;;;;;;30.35;17.30;;;4.60;90.60;;;;;;5082795;28;20050;-74
2022/03/12 04:28:32;;;;;;;32.60;18.25;;;4.60;90.60;;;;;;5087018;28;20020;-74
2022/03/12 04:31:02;;;;;;;31.17;18.05;;;4.60;90.80;;;;;;5086274;28;20520;-74
2022/03/12 04:33:29;;;;;;;29.90;17.63;;;4.70;90.50;;;;;;5087238;28;20028;-74
2022/03/12 04:35:57;;;;;;;27.88;16.27;;;4.70;90.40;;;;;;5083156;28;20028;-74
2022/03/12 04:38:23;;;;;;;29.45;16.58;;;4.80;90.50;;;;;;5082868;28;20031;-74
2022/03/12 04:40:49;;;;;;;29.83;17.15;;;4.80;90.70;;;;;;5082947;28;20488;-74
2022/03/12 04:43:15;;;;;;;23.17;14.38;;;4.80;90.80;;;;;;5087208;28;20047;-74
2022/03/12 04:45:45;;;;;;;25.75;15.32;;;4.80;90.80;;;;;;5084855;28;20032;-74
2022/03/12 04:48:14;;;;;;;24.83;14.40;;;4.80;90.90;;;;;;5080838;28;20028;-74
2022/03/12 04:50:39;;;;;;;29.88;15.90;;;4.80;90.70;;;;;;5078170;28;20561;-74
2022/03/12 04:53:05;;;;;;;29.70;16.95;;;4.80;90.50;;;;;;5086662;28;20043;-74
2022/03/12 04:55:31;;;;;;;25.48;16.05;;;4.80;90.50;;;;;;5084749;28;20035;-74
2022/03/12 04:57:58;;;;;;;26.73;14.98;;;4.80;90.70;;;;;;5086302;28;20231;-74
2022/03/12 05:00:28;;;;;;;23.90;14.63;;;4.80;90.40;;;;;;5083809;28;20044;-74
2022/03/12 05:03:04;;;;;;;30.55;17.05;;;4.70;90.40;;;;;;5084405;28;20028;-74
2022/03/12 05:05:30;;;;;;;29.00;15.38;;;4.80;90.50;;;;;;5081001;28;20032;-74
2022/03/12 05:07:59;;;;;;;28.27;16.33;;;4.80;90.30;;;;;;5080991;28;20528;-74
2022/03/12 05:10:27;;;;;;;27.90;15.82;;;4.70;90.60;;;;;;5083759;28;20355;-74
2022/03/12 05:13:00;;;;;;;26.00;15.40;;;4.70;90.60;;;;;;5076729;28;20032;-75
2022/03/12 05:15:37;;;;;;;26.67;15.38;;;4.80;90.50;;;;;;5083848;28;20161;-74
2022/03/12 05:18:08;;;;;;;23.65;13.52;;;4.90;90.60;;;;;;5077692;28;20035;-74
2022/03/12 05:20:36;;;;;;;27.58;16.15;;;4.90;90.30;;;;;;5082882;28;20074;-74
2022/03/12 05:23:06;;;;;;;29.70;16.05;;;4.90;90.40;;;;;;5073720;28;20032;-73
2022/03/12 05:25:32;;;;;;;28.52;15.82;;;4.90;90.40;;;;;;5075854;28;20032;-74
2022/03/12 05:27:58;;;;;;;29.25;15.90;;;4.80;90.50;;;;;;5081085;28;20932;-74
2022/03/12 05:30:24;;;;;;;27.38;14.73;;;4.80;90.50;;;;;;5083038;28;20039;-73
2022/03/12 05:32:51;;;;;;;28.20;16.23;;;4.80;90.50;;;;;;5082458;28;20032;-74
2022/03/12 05:35:18;;;;;;;21.70;13.13;;;4.80;90.40;;;;;;5082083;28;20529;-74
2022/03/12 05:37:48;;;;;;;24.50;12.82;;;4.80;90.60;;;;;;5081672;28;20130;-74
2022/03/12 05:40:18;;;;;;;23.98;13.38;;;4.80;90.60;;;;;;5079204;28;20055;-74
2022/03/12 05:42:45;;;;;;;23.20;12.15;;;4.80;90.90;;;;;;5082479;28;20028;-74
2022/03/12 05:45:12;;;;;;;22.52;12.55;;;4.80;90.60;;;;;;5074897;28;20115;-74
2022/03/12 05:47:42;;;;;;;28.20;14.00;;;4.70;90.70;;;;;;5073285;28;20036;-74
2022/03/12 05:50:10;;;;;;;22.55;12.85;;;4.70;90.70;;;;;;5077487;28;20042;-73
2022/03/12 05:52:37;;;;;;;23.05;13.55;;;4.70;90.90;;;;;;5082733;28;20386;-74
2022/03/12 05:55:05;;;;;;;27.10;12.98;;;4.80;90.80;;;;;;5083226;28;20503;-74
2022/03/12 05:57:35;;;;;;;21.58;13.45;;;4.90;90.80;;;;;;5071173;28;20031;-74
2022/03/12 06:00:02;;;;;;;24.45;14.80;;;4.90;90.60;;;;;;5073739;28;20072;-74
2022/03/12 06:02:29;;;;;;;36.58;18.15;;;4.90;90.40;;;;;;5079805;28;20063;-74
2022/03/12 06:04:58;;;;;;;29.08;17.05;;;4.90;90.30;;;;;;5082415;28;20629;-74
2022/03/12 06:07:27;;;;;;;29.65;17.48;;;4.90;90.10;;;;;;5082272;28;20051;-74
2022/03/12 06:09:56;;;;;;;31.67;18.45;;;4.90;90.00;;;;;;5082963;28;20068;-74
2022/03/12 06:12:25;;;;;;;35.58;19.52;;;5.00;89.60;;;;;;5080623;28;20028;-74
2022/03/12 06:14:54;;;;;;;30.25;18.83;;;5.00;89.70;;;;;;5079536;28;20036;-74
2022/03/12 06:17:19;;;;;;;34.28;18.27;;;5.00;89.60;;;;;;5076407;28;20028;-74
2022/03/12 06:19:46;;;;;;;32.13;17.52;;;5.00;90.20;;;;;;5071795;28;20050;-74
2022/03/12 06:22:12;;;;;;;28.23;15.95;;;5.00;90.50;;;;;;5069109;28;20111;-74
2022/03/12 06:24:37;;;;;;;36.83;15.00;;;5.00;90.70;;;;;;5075637;28;20441;-74
2022/03/12 06:27:03;;;;;;;22.70;12.23;;;5.00;90.90;;;;;;5078282;28;20111;-73
2022/03/12 06:29:29;;;;;;;25.20;14.10;;;5.00;91.00;;;;;;5072445;28;20044;-73
2022/03/12 06:31:55;;;;;;;23.13;13.65;;;5.00;91.20;;;;;;5070299;28;20074;-74
2022/03/12 06:34:20;;;;;;;25.17;13.60;;;4.90;91.20;;;;;;5076388;28;20470;-73
2022/03/12 06:36:46;;;;;;;22.90;12.65;;;5.00;91.10;;;;;;5075003;28;20463;-73
2022/03/12 06:39:12;;;;;;;20.30;12.30;;;4.90;91.20;;;;;;5072804;28;20122;-74
2022/03/12 06:41:43;;;;;;;23.38;12.50;;;5.00;91.40;;;;;;5072626;28;20036;-73
2022/03/12 06:44:09;;;;;;;20.40;11.52;;;4.90;91.20;;;;;;5074840;28;20100;-73
2022/03/12 06:46:35;;;;;;;20.38;11.00;;;4.90;91.00;;;;;;5072933;28;20042;-74
2022/03/12 06:49:03;;;;;;;21.50;11.05;;;5.00;91.10;;;;;;5074450;28;20450;-73
2022/03/12 06:51:29;;;;;;;21.08;13.30;;;5.00;91.10;;;;;;5072695;28;20129;-74
2022/03/12 06:53:55;;;;;;;19.13;12.40;;;5.10;91.20;;;;;;5072179;28;20029;-73
2022/03/12 06:56:21;;;;;;;23.30;11.88;;;5.10;91.40;;;;;;5073896;28;20070;-73
2022/03/12 06:58:47;;;;;;;18.20;10.93;;;5.10;90.90;;;;;;5072536;28;20024;-73
2022/03/12 07:01:13;;;;;;;20.00;11.55;;;5.10;90.90;;;;;;5072348;28;20825;-73
2022/03/12 07:03:39;;;;;;;18.65;11.60;;;5.00;91.30;;;;;;5068512;28;20249;-73
2022/03/12 07:06:04;;;;;;;26.00;11.60;;;5.00;91.00;;;;;;5069896;28;20040;-74
2022/03/12 07:08:30;;;;;;;22.08;12.57;;;5.10;90.90;;;;;;5066629;28;20029;-73
2022/03/12 07:10:56;;;;;;;23.23;13.48;;;5.20;90.80;;;;;;5070979;28;20044;-74
2022/03/12 07:13:23;;;;;;;20.73;12.52;;;5.20;90.80;;;;;;5074658;28;20028;-73
2022/03/12 07:15:49;;;;;;;29.00;13.07;;;5.20;90.60;;;;;;5081727;28;20024;-73
2022/03/12 07:18:15;;;;;;;27.80;14.88;;;5.30;90.70;;;;;;5081753;28;20047;-74
2022/03/12 07:20:41;;;;;;;23.45;13.20;;;5.20;90.70;;;;;;5079211;28;20558;-74
2022/03/12 07:23:07;;;;;;;23.85;13.05;;;5.20;91.00;;;;;;5079186;28;20481;-73
2022/03/12 07:25:34;;;;;;;26.65;12.48;;;5.30;91.10;;;;;;5080327;28;20047;-73
2022/03/12 07:28:00;;;;;;;28.38;13.32;;;5.30;90.90;;;;;;5079327;28;20040;-73
2022/03/12 07:30:26;;;;;;;24.48;13.35;;;5.30;91.00;;;;;;5081578;28;20489;-73
2022/03/12 07:32:52;;;;;;;23.30;11.70;;;5.40;91.10;;;;;;5083132;28;20028;-73
2022/03/12 07:35:18;;;;;;;21.38;11.68;;;5.40;90.90;;;;;;5085348;28;20032;-74
2022/03/12 07:37:46;;;;;;;19.60;11.60;;;5.40;90.80;;;;;;5082079;28;20534;-74
2022/03/12 07:40:13;;;;;;;22.17;12.43;;;5.50;90.90;;;;;;5080797;28;20107;-73
2022/03/12 07:42:39;;;;;;;19.73;10.90;;;5.40;90.80;;;;;;5083744;28;20036;-74
2022/03/12 07:45:07;;;;;;;19.38;11.60;;;5.40;90.90;;;;;;5085084;28;20032;-74
2022/03/12 07:47:34;;;;;;;26.42;15.95;;;5.40;91.10;;;;;;5084224;28;20093;-73
2022/03/12 07:50:00;;;;;;;24.35;13.80;;;5.40;91.10;;;;;;5071220;28;20025;-73
2022/03/12 07:52:26;;;;;;;20.98;12.15;;;5.40;91.10;;;;;;5074235;28;20040;-73
2022/03/12 07:54:52;;;;;;;21.38;11.55;;;5.40;91.00;;;;;;5080441;28;20032;-74
2022/03/12 07:57:18;;;;;;;19.83;11.73;;;5.50;90.90;;;;;;5083800;28;20664;-74
2022/03/12 07:59:44;;;;;;;23.00;11.57;;;5.50;90.70;;;;;;5085345;28;20028;-74
2022/03/12 08:02:11;;;;;;;18.63;10.88;;;5.50;90.70;;;;;;5083347;28;20024;-74
2022/03/12 08:04:36;;;;;;;19.08;10.73;;;5.60;90.80;;;;;;5075296;28;20060;-74
2022/03/12 08:07:04;;;;;;;21.08;11.45;;;5.60;90.60;;;;;;5078015;28;20138;-74
2022/03/12 08:09:31;;;;;;;22.88;11.80;;;5.60;90.60;;;;;;5083686;28;20031;-73
2022/03/12 08:11:58;;;;;;;29.48;12.32;;;5.70;90.60;;;;;;5076216;28;20035;-73
2022/03/12 08:14:24;;;;;;;26.58;11.18;;;5.70;90.30;;;;;;5076870;28;20071;-74
2022/03/12 08:16:52;;;;;;;22.02;10.75;;;5.70;90.70;;;;;;5079620;28;20063;-73
2022/03/12 08:19:19;;;;;;;25.30;12.75;;;5.80;90.60;;;;;;5071628;28;20039;-74
2022/03/12 08:21:46;;;;;;;24.33;10.95;;;5.90;90.20;;;;;;5075592;28;20036;-74
2022/03/12 08:24:15;;;;;;;22.33;12.25;;;6.10;90.20;;;;;;5073426;28;20067;-74
2022/03/12 08:26:42;;;;;;;21.95;11.63;;;6.10;90.20;;;;;;5079153;28;20700;-74
2022/03/12 08:29:12;;;;;;;18.35;10.70;;;6.00;90.30;;;;;;5078444;28;20085;-74
2022/03/12 08:31:39;;;;;;;23.30;11.85;;;6.00;89.90;;;;;;5085077;28;20131;-74
2022/03/12 08:34:09;;;;;;;19.45;11.18;;;6.00;89.30;;;;;;5083773;28;20095;-73
2022/03/12 08:36:34;;;;;;;23.75;11.43;;;6.00;89.20;;;;;;5083858;28;20024;-74
2022/03/12 08:39:00;;;;;;;20.10;11.57;;;6.00;89.30;;;;;;5084269;28;20115;-74
2022/03/12 08:41:27;;;;;;;21.60;11.75;;;6.10;89.70;;;;;;5082894;28;20044;-73
2022/03/12 08:43:53;;;;;;;20.02;13.10;;;6.10;89.40;;;;;;5083358;28;20032;-75
2022/03/12 08:46:19;;;;;;;21.80;12.13;;;6.20;89.90;;;;;;5078293;28;20043;-73
2022/03/12 08:48:45;;;;;;;28.45;12.05;;;6.40;88.90;;;;;;5079079;28;20031;-74
2022/03/12 08:51:11;;;;;;;21.88;10.63;;;6.30;88.40;;;;;;5071927;28;20374;-74
2022/03/12 08:53:37;;;;;;;21.75;12.00;;;6.40;88.70;;;;;;5074338;28;20043;-74
2022/03/12 08:56:04;;;;;;;19.85;10.63;;;6.30;88.10;;;;;;5071693;28;20046;-74
2022/03/12 08:58:31;;;;;;;18.60;11.35;;;6.50;88.60;;;;;;5073094;28;20081;-74
2022/03/12 09:00:58;;;;;;;21.20;11.65;;;6.70;88.70;;;;;;5080333;28;20131;-75
2022/03/12 09:03:24;;;;;;;21.23;10.73;;;6.40;87.90;;;;;;5080038;28;20363;-75
2022/03/12 09:05:51;;;;;;;25.77;13.10;;;6.60;88.20;;;;;;5088442;28;20036;-75
2022/03/12 09:08:18;;;;;;;25.27;13.45;;;6.80;88.10;;;;;;5089438;28;20013;-77
2022/03/12 09:10:44;;;;;;;19.23;12.45;;;7.00;87.20;;;;;;5081708;28;20070;-78
2022/03/12 09:13:13;;;;;;;24.35;12.27;;;6.90;87.50;;;;;;5080350;28;20039;-76
2022/03/12 09:15:40;;;;;;;19.58;10.52;;;7.00;86.50;;;;;;5082593;28;20390;-76
2022/03/12 09:18:07;;;;;;;23.77;11.65;;;6.90;86.60;;;;;;5081403;28;20454;-76
2022/03/12 09:20:38;;;;;;;24.00;12.18;;;7.10;86.60;;;;;;5082757;28;20034;-76
2022/03/12 09:23:04;;;;;;;19.63;11.27;;;7.10;86.20;;;;;;5085058;28;20058;-76
2022/03/12 09:25:29;;;;;;;20.50;10.60;;;7.10;85.50;;;;;;5081535;28;20900;-76
2022/03/12 09:27:55;;;;;;;19.15;10.50;;;7.20;86.20;;;;;;5089046;28;20122;-76
2022/03/12 09:30:21;;;;;;;17.75;10.57;;;7.30;85.60;;;;;;5083103;28;20159;-76
2022/03/12 09:32:46;;;;;;;21.50;11.07;;;7.20;85.20;;;;;;5085656;28;20161;-78
2022/03/12 09:35:14;;;;;;;22.40;12.18;;;7.30;85.50;;;;;;5083259;28;20028;-76
2022/03/12 09:37:40;;;;;;;17.90;10.18;;;7.20;85.00;;;;;;5075888;28;20035;-76
2022/03/12 09:40:07;;;;;;;19.45;10.88;;;7.40;85.00;;;;;;5074667;28;20471;-76
2022/03/12 09:42:33;;;;;;;23.23;12.68;;;7.50;84.90;;;;;;5079883;28;20035;-76
2022/03/12 09:44:59;;;;;;;18.58;13.13;;;7.50;84.40;;;;;;5081595;28;20032;-76
2022/03/12 09:47:25;;;;;;;21.83;13.32;;;7.50;84.20;;;;;;5084053;28;20362;-77
2022/03/12 09:49:52;;;;;;;41.85;24.60;;;7.50;84.40;;;;;;5085842;28;20047;-78
2022/03/12 09:52:17;;;;;;;89.03;56.60;;;7.70;84.00;;;;;;5087380;28;20617;-77
2022/03/12 09:54:44;;;;;;;69.85;53.03;;;7.60;83.80;;;;;;5078254;28;20048;-76
2022/03/12 09:57:10;;;;;;;51.08;43.83;;;7.60;84.10;;;;;;5077880;28;20119;-77
2022/03/12 09:59:36;;;;;;;26.65;18.17;;;7.70;84.70;;;;;;5074791;28;20028;-74
2022/03/12 10:02:02;;;;;;;32.28;24.20;;;7.90;84.50;;;;;;5080785;28;20649;-74
2022/03/12 10:04:28;;;;;;;33.30;17.50;;;7.80;82.60;;;;;;5049020;28;20064;-74
2022/03/12 10:06:55;;;;;;;24.80;14.75;;;7.70;83.40;;;;;;5037493;28;20044;-74
2022/03/12 10:09:22;;;;;;;32.17;19.25;;;7.50;83.90;;;;;;5039231;28;20033;-74
2022/03/12 10:11:49;;;;;;;27.05;14.50;;;7.60;82.50;;;;;;5040757;28;20029;-74
2022/03/12 10:14:14;;;;;;;26.60;15.02;;;7.60;83.50;;;;;;5040182;28;20041;-74
2022/03/12 10:16:40;;;;;;;25.25;16.55;;;7.60;84.30;;;;;;5042290;28;20085;-74
2022/03/12 10:19:06;;;;;;;31.92;20.83;;;7.50;83.50;;;;;;5046189;28;20036;-74
2022/03/12 10:21:32;;;;;;;31.88;18.65;;;7.50;84.20;;;;;;5038911;28;20029;-74
2022/03/12 10:23:59;;;;;;;22.40;14.80;;;7.60;83.60;;;;;;5039542;28;20025;-74
2022/03/12 10:26:25;;;;;;;27.83;14.90;;;7.90;83.80;;;;;;5046186;28;20108;-75
2022/03/12 10:28:51;;;;;;;28.48;14.40;;;8.00;82.90;;;;;;5047683;28;20037;-73
2022/03/12 10:31:19;;;;;;;27.52;13.93;;;8.30;82.80;;;;;;5043613;28;20029;-71
2022/03/12 10:33:45;;;;;;;28.60;14.10;;;7.90;82.20;;;;;;5048417;28;20262;-74
2022/03/12 10:36:17;;;;;;;23.90;14.70;;;7.80;83.80;;;;;;5044920;28;20037;-72
2022/03/12 10:38:49;;;;;;;22.88;12.93;;;7.70;84.10;;;;;;5046319;28;20450;-74
2022/03/12 10:41:16;;;;;;;26.67;14.45;;;7.70;83.90;;;;;;5048785;28;20086;-73
2022/03/12 10:43:43;;;;;;;22.58;14.10;;;7.60;84.50;;;;;;5043381;28;20040;-73
2022/03/12 10:46:09;;;;;;;25.90;13.18;;;7.60;83.90;;;;;;5045174;28;20191;-73
2022/03/12 10:48:39;;;;;;;22.30;13.90;;;7.60;83.90;;;;;;5050499;28;20044;-73
2022/03/12 10:51:05;;;;;;;24.02;13.27;;;7.70;84.80;;;;;;5046195;28;20378;-73
2022/03/12 10:53:32;;;;;;;26.23;15.50;;;7.50;84.50;;;;;;5045212;28;21344;-74
2022/03/12 10:55:58;;;;;;;24.75;15.05;;;7.60;84.50;;;;;;5043705;28;20036;-75
2022/03/12 10:58:26;;;;;;;26.20;15.55;;;7.70;84.80;;;;;;5045875;28;20114;-75
2022/03/12 11:00:52;;;;;;;27.15;15.15;;;7.60;84.20;;;;;;5045600;28;20056;-72
2022/03/12 11:03:26;;;;;;;33.40;14.90;;;7.70;84.30;;;;;;5043239;28;20094;-74
2022/03/12 11:05:54;;;;;;;27.45;15.65;;;7.70;84.10;;;;;;5045825;28;20123;-74
2022/03/12 11:08:26;;;;;;;27.35;14.52;;;7.70;84.30;;;;;;5050264;28;20025;-73
2022/03/12 11:10:58;;;;;;;25.38;14.65;;;7.90;83.50;;;;;;5045949;28;20079;-73
2022/03/12 11:13:43;;;;;;;30.58;15.55;;;7.90;83.80;;;;;;5046773;28;20025;-73
2022/03/12 11:16:15;;;;;;;22.48;14.68;;;8.00;83.00;;;;;;5052339;28;20024;-73
2022/03/12 11:18:53;;;;;;;27.40;15.93;;;8.20;83.00;;;;;;5045988;28;20032;-73
2022/03/12 11:21:37;;;;;;;28.33;14.65;;;8.10;82.60;;;;;;5050380;28;20043;-73
2022/03/12 11:24:09;;;;;;;30.38;16.00;;;8.20;82.70;;;;;;5051101;28;20418;-73
2022/03/12 11:26:54;;;;;;;27.80;16.55;;;8.20;82.70;;;;;;5049220;28;20147;-74
2022/03/12 11:29:22;;;;;;;31.30;17.58;;;8.20;82.50;;;;;;5050278;28;20060;-73
2022/03/12 11:31:59;;;;;;;30.52;17.02;;;8.40;83.20;;;;;;5048449;28;20029;-74
2022/03/12 11:34:29;;;;;;;33.70;18.83;;;8.40;81.90;;;;;;5050084;28;20123;-74
2022/03/12 11:36:55;;;;;;;30.27;17.17;;;8.50;81.80;;;;;;5047263;28;20033;-74
2022/03/12 11:39:28;;;;;;;27.75;16.77;;;8.50;81.10;;;;;;5049511;28;20403;-74
2022/03/12 11:42:07;;;;;;;27.58;17.70;;;8.70;81.20;;;;;;5054338;28;20044;-74
2022/03/12 11:44:35;;;;;;;32.58;17.98;;;8.60;81.30;;;;;;5052961;28;20033;-74
2022/03/12 11:47:03;;;;;;;39.08;22.35;;;8.60;81.10;;;;;;5046132;28;20040;-74
2022/03/12 11:49:29;;;;;;;31.65;19.70;;;8.70;81.30;;;;;;5044870;28;20150;-74
2022/03/12 11:51:56;;;;;;;30.55;17.10;;;8.70;80.50;;;;;;5045676;28;20594;-74
2022/03/12 11:54:23;;;;;;;34.85;19.40;;;8.60;81.00;;;;;;5045256;28;20039;-74
2022/03/12 11:56:49;;;;;;;29.20;17.58;;;8.60;80.70;;;;;;5048896;28;20051;-74
2022/03/12 11:59:15;;;;;;;29.55;16.50;;;8.60;80.60;;;;;;5049745;28;22102;-74
2022/03/12 12:01:41;;;;;;;34.58;20.55;;;8.50;80.60;;;;;;5047405;28;20069;-74
2022/03/12 12:04:07;;;;;;;38.33;21.85;;;8.60;80.10;;;;;;5048552;28;20032;-74
2022/03/12 12:06:34;;;;;;;34.33;19.23;;;8.60;79.80;;;;;;5048741;28;20032;-74
2022/03/12 12:09:01;;;;;;;33.92;18.67;;;8.60;80.80;;;;;;5044739;28;20550;-74
2022/03/12 12:11:30;;;;;;;34.08;19.48;;;8.60;80.50;;;;;;5042180;28;20029;-74
2022/03/12 12:13:58;;;;;;;36.25;19.75;;;8.60;79.70;;;;;;5050620;28;20021;-74
2022/03/12 12:16:25;;;;;;;29.08;18.30;;;8.50;79.70;;;;;;5053782;28;20067;-74
2022/03/12 12:18:51;;;;;;;36.08;18.23;;;8.50;79.80;;;;;;5046430;28;20597;-74
2022/03/12 12:21:17;;;;;;;34.63;19.85;;;8.40;79.60;;;;;;5046697;28;20048;-74
2022/03/12 12:23:43;;;;;;;28.73;17.73;;;8.60;80.20;;;;;;5052567;28;20024;-74
2022/03/12 12:26:11;;;;;;;30.17;17.77;;;8.60;79.50;;;;;;5047807;28;20119;-74
2022/03/12 12:28:47;;;;;;;37.22;18.75;;;8.80;79.50;;;;;;5053717;28;20046;-74
2022/03/12 12:31:19;;;;;;;29.80;17.73;;;8.70;78.50;;;;;;5049949;28;20063;-74
2022/03/12 12:33:45;;;;;;;31.10;18.40;;;8.80;78.60;;;;;;5053403;28;20033;-74
2022/03/12 12:36:15;;;;;;;31.48;18.83;;;8.90;78.40;;;;;;5047703;28;20017;-75
2022/03/12 12:39:03;;;;;;;34.67;18.23;;;9.00;78.80;;;;;;5051018;28;20041;-74